Time;durP1;ratioP1;P1;durP2;ratioP2;P2;SDS_P1;SDS_P2;PMS_P1;PMS_P2;Temp;Humidity;BMP_temperature;BMP_pressure;BME280_temperature;BME280_humidity;BME280_pressure;Samples;Min_cycle;Max_cycle;Signal;HPM_P1;HPM_P2
2022/10/13 00:02:29;;;;;;;28.73;20.90;;;19.50;99.90;;;;;;5115972;28;20216;-92
2022/10/13 00:05:00;;;;;;;29.00;20.60;;;19.40;99.90;;;;;;5119556;28;20230;-93
2022/10/13 00:07:31;;;;;;;33.60;20.37;;;19.40;99.90;;;;;;5101919;28;20198;-93
2022/10/13 00:10:06;;;;;;;26.70;20.17;;;19.30;99.90;;;;;;5117556;28;20658;-93
2022/10/13 00:12:38;;;;;;;26.37;20.33;;;19.30;99.90;;;;;;5116896;28;20541;-93
2022/10/13 00:15:11;;;;;;;29.30;20.00;;;19.20;99.90;;;;;;5119546;28;20214;-93
2022/10/13 00:17:42;;;;;;;29.73;19.13;;;19.20;99.90;;;;;;5116759;28;20575;-93
2022/10/13 00:20:14;;;;;;;24.90;18.60;;;19.10;99.90;;;;;;5115848;28;20539;-93
2022/10/13 00:22:45;;;;;;;26.53;18.87;;;19.00;99.90;;;;;;5095518;28;20682;-93
2022/10/13 00:25:18;;;;;;;27.07;18.60;;;19.00;99.90;;;;;;5096336;28;20234;-93
2022/10/13 00:27:50;;;;;;;27.73;18.63;;;18.80;99.90;;;;;;5095952;28;20652;-93
2022/10/13 00:30:22;;;;;;;28.27;19.03;;;18.80;99.90;;;;;;5096405;28;20689;-93
2022/10/13 00:32:53;;;;;;;30.27;19.53;;;18.70;99.90;;;;;;5077458;28;20667;-92
2022/10/13 00:35:25;;;;;;;30.83;19.00;;;18.50;99.90;;;;;;5096060;28;20401;-93
2022/10/13 00:37:56;;;;;;;27.70;18.37;;;18.50;99.90;;;;;;5078553;28;20217;-93
2022/10/13 00:40:29;;;;;;;27.00;18.47;;;18.40;99.90;;;;;;5095707;28;20686;-93
2022/10/13 00:43:00;;;;;;;28.43;18.47;;;18.30;99.90;;;;;;5094499;28;20205;-93
2022/10/13 00:45:31;;;;;;;32.50;19.43;;;18.30;99.90;;;;;;5095019;28;20231;-92
2022/10/13 00:48:04;;;;;;;28.13;19.83;;;18.30;99.90;;;;;;5096259;28;20567;-92
2022/10/13 00:50:40;;;;;;;34.33;21.03;;;18.20;99.90;;;;;;5095958;28;20217;-93
2022/10/13 00:53:13;;;;;;;23.77;18.40;;;18.10;99.90;;;;;;5094942;28;20199;-93
2022/10/13 00:55:48;;;;;;;29.33;19.20;;;18.10;99.90;;;;;;5096130;28;20664;-93
2022/10/13 00:58:23;;;;;;;27.23;19.67;;;17.90;99.90;;;;;;5096192;28;20283;-93
2022/10/13 01:00:55;;;;;;;27.53;19.57;;;17.90;99.90;;;;;;5096648;28;20210;-93
2022/10/13 01:03:26;;;;;;;29.60;19.30;;;17.70;99.90;;;;;;5096766;28;20241;-92
2022/10/13 01:06:02;;;;;;;31.97;19.83;;;17.70;99.90;;;;;;5106034;28;20227;-93
2022/10/13 01:08:34;;;;;;;26.73;19.33;;;17.60;99.90;;;;;;5117032;28;20191;-92
2022/10/13 01:11:26;;;;;;;33.83;20.77;;;17.50;99.90;;;;;;5117231;28;20259;-93
2022/10/13 01:14:04;;;;;;;30.73;19.53;;;17.40;99.90;;;;;;5115557;28;20194;-93
2022/10/13 01:16:44;;;;;;;31.67;20.17;;;17.30;99.90;;;;;;5099659;28;20214;-94
2022/10/13 01:19:39;;;;;;;28.33;19.50;;;17.20;99.90;;;;;;5115586;28;20282;-92
2022/10/13 01:22:21;;;;;;;27.07;19.67;;;17.00;99.90;;;;;;5114330;28;20234;-92
2022/10/13 01:25:02;;;;;;;34.77;20.10;;;16.90;99.90;;;;;;5114810;28;20240;-93
2022/10/13 01:28:00;;;;;;;28.53;20.13;;;16.70;99.90;;;;;;5113661;28;20582;-91
2022/10/13 01:30:38;;;;;;;28.80;19.33;;;16.60;99.90;;;;;;5110027;28;20199;-91
2022/10/13 01:33:23;;;;;;;30.10;20.10;;;16.40;99.90;;;;;;5098881;28;20237;-92
2022/10/13 01:36:05;;;;;;;28.27;18.90;;;16.30;99.90;;;;;;5096800;28;20217;-93
2022/10/13 01:38:42;;;;;;;28.63;19.43;;;16.20;99.90;;;;;;5097849;28;20211;-93
2022/10/13 01:41:18;;;;;;;33.27;20.77;;;16.10;99.90;;;;;;5094815;28;20206;-92
2022/10/13 01:43:56;;;;;;;28.20;20.03;;;16.00;99.90;;;;;;5097821;28;20201;-92
2022/10/13 01:46:33;;;;;;;27.17;19.97;;;15.90;99.90;;;;;;5115165;28;20241;-92
2022/10/13 01:49:08;;;;;;;28.93;20.27;;;15.90;99.90;;;;;;5115489;28;20197;-93
2022/10/13 01:51:41;;;;;;;31.50;20.00;;;15.80;99.90;;;;;;5116294;28;20270;-92
2022/10/13 01:54:12;;;;;;;27.57;19.93;;;15.80;99.90;;;;;;5115805;28;20210;-92
2022/10/13 01:56:43;;;;;;;30.80;19.37;;;15.80;99.90;;;;;;5115439;28;20678;-93
2022/10/13 01:59:16;;;;;;;26.53;19.03;;;15.70;99.90;;;;;;5115338;28;20202;-93
2022/10/13 02:02:01;;;;;;;25.50;18.30;;;15.70;99.90;;;;;;5096974;28;20651;-93
2022/10/13 02:04:46;;;;;;;30.63;19.07;;;15.60;99.90;;;;;;5117418;28;20216;-93
2022/10/13 02:07:24;;;;;;;31.87;19.10;;;15.50;99.90;;;;;;5120293;28;20213;-93
2022/10/13 02:10:04;;;;;;;28.53;18.33;;;15.40;99.90;;;;;;5101206;28;20202;-93
2022/10/13 02:12:40;;;;;;;27.93;17.73;;;15.30;99.90;;;;;;5118138;28;20209;-93
2022/10/13 02:15:15;;;;;;;22.70;16.47;;;15.30;99.90;;;;;;5119008;28;20576;-91
2022/10/13 02:17:48;;;;;;;23.50;15.80;;;15.30;99.90;;;;;;5119777;28;20210;-92
2022/10/13 02:20:21;;;;;;;24.87;16.80;;;15.30;99.90;;;;;;5119359;28;20213;-93
2022/10/13 02:22:56;;;;;;;27.30;15.93;;;15.20;99.90;;;;;;5119181;28;20214;-93
2022/10/13 02:25:28;;;;;;;25.67;15.27;;;15.20;99.90;;;;;;5119361;28;20257;-92
2022/10/13 02:28:01;;;;;;;27.40;15.50;;;15.20;99.90;;;;;;5117934;28;20646;-93
2022/10/13 02:30:33;;;;;;;24.00;15.33;;;15.00;99.90;;;;;;5119537;28;20206;-93
2022/10/13 02:33:06;;;;;;;22.23;15.07;;;15.00;99.90;;;;;;5118295;28;20682;-93
2022/10/13 02:35:37;;;;;;;27.00;15.57;;;14.90;99.90;;;;;;5119761;28;20207;-92
2022/10/13 02:38:09;;;;;;;28.63;15.50;;;14.80;99.90;;;;;;5121491;28;20206;-92
2022/10/13 02:40:40;;;;;;;20.97;13.73;;;14.80;99.90;;;;;;5119319;28;20259;-93
2022/10/13 02:43:11;;;;;;;22.43;14.33;;;14.80;99.90;;;;;;5120004;28;20212;-93
2022/10/13 02:45:43;;;;;;;21.40;13.70;;;14.80;99.90;;;;;;5104905;28;20222;-93
2022/10/13 02:48:16;;;;;;;25.23;15.03;;;14.70;99.90;;;;;;5124457;28;20214;-92
2022/10/13 02:50:48;;;;;;;21.87;14.97;;;14.70;99.90;;;;;;5119750;28;20577;-92
2022/10/13 02:53:19;;;;;;;23.30;14.30;;;14.60;99.90;;;;;;5119470;28;20203;-93
2022/10/13 02:55:50;;;;;;;21.47;15.00;;;14.60;99.90;;;;;;5121071;28;20209;-93
2022/10/13 02:58:21;;;;;;;21.17;13.80;;;14.50;99.90;;;;;;5119625;28;20226;-91
2022/10/13 03:00:52;;;;;;;22.90;14.27;;;14.40;99.90;;;;;;5101875;28;20206;-93
2022/10/13 03:03:25;;;;;;;21.57;14.17;;;14.30;99.90;;;;;;5118367;28;20618;-93
2022/10/13 03:05:57;;;;;;;22.50;14.07;;;14.20;99.90;;;;;;5120600;28;20244;-92
2022/10/13 03:08:28;;;;;;;23.37;13.93;;;14.20;99.90;;;;;;5120143;28;20225;-92
2022/10/13 03:11:00;;;;;;;20.17;13.63;;;14.10;99.90;;;;;;5131543;28;20209;-90
2022/10/13 03:13:32;;;;;;;22.23;13.33;;;14.10;99.90;;;;;;5102661;28;20222;-90
2022/10/13 03:16:03;;;;;;;21.07;13.47;;;14.00;99.90;;;;;;5138034;28;20198;-92
2022/10/13 03:18:36;;;;;;;19.37;13.53;;;14.00;99.90;;;;;;5135769;28;20234;-93
2022/10/13 03:21:08;;;;;;;21.57;13.03;;;13.90;99.90;;;;;;5133877;28;20202;-93
2022/10/13 03:23:41;;;;;;;22.00;13.70;;;13.90;99.90;;;;;;5121012;28;20267;-93
2022/10/13 03:26:14;;;;;;;21.90;13.30;;;13.80;99.90;;;;;;5118776;28;20240;-93
2022/10/13 03:28:50;;;;;;;20.97;12.70;;;13.80;99.90;;;;;;5118254;28;20654;-92
2022/10/13 03:31:22;;;;;;;20.17;12.60;;;13.70;99.90;;;;;;5122675;28;20206;-92
2022/10/13 03:33:55;;;;;;;19.57;12.93;;;13.70;99.90;;;;;;5107461;28;20233;-93
2022/10/13 03:36:26;;;;;;;19.33;12.63;;;13.70;99.90;;;;;;5121673;28;20209;-92
2022/10/13 03:38:57;;;;;;;19.87;12.57;;;13.60;99.90;;;;;;5099789;28;20206;-92
2022/10/13 03:41:28;;;;;;;21.60;13.33;;;13.60;99.90;;;;;;5117363;28;20205;-91
2022/10/13 03:44:00;;;;;;;23.03;13.60;;;13.50;99.90;;;;;;5116759;28;20229;-92
2022/10/13 03:46:32;;;;;;;18.07;12.57;;;13.50;99.90;;;;;;5117564;28;20639;-92
2022/10/13 03:49:05;;;;;;;21.03;12.30;;;13.50;99.90;;;;;;5117253;28;20214;-92
2022/10/13 03:51:37;;;;;;;21.60;11.90;;;13.50;99.90;;;;;;5118549;28;20206;-92
2022/10/13 03:54:11;;;;;;;22.03;12.43;;;13.40;99.90;;;;;;5116747;28;20285;-92
2022/10/13 03:56:42;;;;;;;21.97;11.67;;;13.40;99.90;;;;;;5117142;28;20209;-92
2022/10/13 03:59:15;;;;;;;19.33;11.27;;;13.40;99.90;;;;;;5116929;28;20615;-93
2022/10/13 04:01:46;;;;;;;23.73;11.80;;;13.40;99.90;;;;;;5116518;28;20210;-95
2022/10/13 04:04:20;;;;;;;18.10;11.17;;;13.30;99.90;;;;;;5117357;28;20198;-93
2022/10/13 04:06:54;;;;;;;22.53;11.43;;;13.30;99.90;;;;;;5116652;28;20297;-92
2022/10/13 04:09:25;;;;;;;17.97;11.27;;;13.20;99.90;;;;;;5101822;28;20221;-92
2022/10/13 04:11:56;;;;;;;19.73;9.87;;;13.20;99.90;;;;;;5118170;28;20225;-92
2022/10/13 04:14:27;;;;;;;18.63;9.80;;;13.20;99.90;;;;;;5119251;28;20221;-92
2022/10/13 04:16:58;;;;;;;18.70;10.97;;;13.20;99.90;;;;;;5116802;28;20210;-94
2022/10/13 04:19:33;;;;;;;18.00;10.20;;;13.20;99.90;;;;;;5102719;28;20202;-92
2022/10/13 04:22:04;;;;;;;23.67;10.37;;;13.20;99.90;;;;;;5118507;28;20221;-93
2022/10/13 04:24:36;;;;;;;16.57;10.37;;;13.20;99.90;;;;;;5116282;28;20203;-94
2022/10/13 04:27:07;;;;;;;18.63;10.97;;;13.20;99.90;;;;;;5115997;28;20261;-93
2022/10/13 04:29:39;;;;;;;17.00;9.40;;;13.20;99.90;;;;;;5099100;28;20206;-93
2022/10/13 04:32:11;;;;;;;17.80;9.67;;;13.10;99.90;;;;;;5115568;28;20210;-92
2022/10/13 04:34:44;;;;;;;15.73;10.17;;;13.10;99.90;;;;;;5116711;28;20202;-93
2022/10/13 04:37:15;;;;;;;20.90;10.83;;;13.10;99.90;;;;;;5116294;28;20724;-92
2022/10/13 04:39:46;;;;;;;17.63;9.53;;;13.00;99.90;;;;;;5116518;28;20206;-92
2022/10/13 04:42:17;;;;;;;17.33;9.43;;;13.00;99.90;;;;;;5115326;28;20215;-93
2022/10/13 04:44:49;;;;;;;18.63;9.50;;;12.90;99.90;;;;;;5116475;28;20213;-93
2022/10/13 04:47:20;;;;;;;19.47;8.93;;;12.90;99.90;;;;;;5115763;28;20320;-93
2022/10/13 04:49:54;;;;;;;22.33;9.50;;;12.80;99.90;;;;;;5115601;28;20209;-92
2022/10/13 04:52:25;;;;;;;15.27;9.50;;;12.70;99.90;;;;;;5097752;28;20213;-92
2022/10/13 04:54:56;;;;;;;20.53;9.30;;;12.70;99.90;;;;;;5116198;28;20690;-93
2022/10/13 04:57:27;;;;;;;15.33;8.90;;;12.60;99.90;;;;;;5115462;28;20209;-93
2022/10/13 04:59:58;;;;;;;17.33;8.33;;;12.60;99.90;;;;;;5113941;28;20205;-92
2022/10/13 05:02:30;;;;;;;14.83;8.53;;;12.70;99.90;;;;;;5097194;28;20274;-92
2022/10/13 05:05:03;;;;;;;18.27;8.77;;;12.60;99.90;;;;;;5115405;28;20521;-93
2022/10/13 05:07:34;;;;;;;17.50;9.20;;;12.60;99.90;;;;;;5115289;28;20237;-92
2022/10/13 05:10:06;;;;;;;16.40;8.97;;;12.60;99.90;;;;;;5115545;28;20217;-92
2022/10/13 05:12:37;;;;;;;18.10;8.50;;;12.60;99.90;;;;;;5114665;28;20206;-92
2022/10/13 05:15:10;;;;;;;17.10;9.17;;;12.60;99.90;;;;;;5115250;28;20213;-93
2022/10/13 05:17:41;;;;;;;19.10;8.00;;;12.50;99.90;;;;;;5115676;28;20217;-92
2022/10/13 05:20:16;;;;;;;16.10;8.07;;;12.50;99.90;;;;;;5115432;28;20209;-93
2022/10/13 05:22:48;;;;;;;16.60;8.23;;;12.50;99.90;;;;;;5114306;28;20216;-93
2022/10/13 05:25:19;;;;;;;14.23;7.57;;;12.50;99.90;;;;;;5118275;28;20206;-93
2022/10/13 05:27:50;;;;;;;16.50;7.93;;;12.40;99.90;;;;;;5115093;28;20289;-91
2022/10/13 05:30:22;;;;;;;14.47;7.87;;;12.40;99.90;;;;;;5117740;28;20209;-93
2022/10/13 05:32:55;;;;;;;14.73;8.47;;;12.40;99.90;;;;;;5116776;28;20570;-92
2022/10/13 05:35:28;;;;;;;14.10;7.43;;;12.30;99.90;;;;;;5118533;28;20261;-92
2022/10/13 05:37:59;;;;;;;14.43;7.33;;;12.30;99.90;;;;;;5101061;28;20202;-92
2022/10/13 05:40:30;;;;;;;18.00;7.70;;;12.20;99.90;;;;;;5115577;28;20206;-92
2022/10/13 05:43:02;;;;;;;16.23;7.70;;;12.20;99.90;;;;;;5114928;28;20554;-92
2022/10/13 05:45:34;;;;;;;15.53;7.60;;;12.20;99.90;;;;;;5116667;28;20229;-91
2022/10/13 05:48:06;;;;;;;15.27;7.33;;;12.20;99.90;;;;;;5114897;28;20242;-92
2022/10/13 05:50:40;;;;;;;12.77;7.27;;;12.10;99.90;;;;;;5099015;28;20206;-91
2022/10/13 05:53:11;;;;;;;17.33;8.00;;;12.10;99.90;;;;;;5117341;28;20202;-92
2022/10/13 05:55:46;;;;;;;13.63;7.40;;;12.10;99.90;;;;;;5125114;28;20214;-93
2022/10/13 05:58:17;;;;;;;12.70;7.30;;;12.00;99.90;;;;;;5122854;28;20212;-92
2022/10/13 06:00:49;;;;;;;13.93;7.37;;;12.00;99.90;;;;;;5116896;28;20210;-93
2022/10/13 06:03:23;;;;;;;13.57;7.93;;;12.00;99.90;;;;;;5115298;28;20220;-92
2022/10/13 06:05:57;;;;;;;17.53;7.87;;;11.90;99.90;;;;;;5116512;28;20213;-93
2022/10/13 06:08:30;;;;;;;15.43;7.40;;;11.80;99.90;;;;;;5116123;28;20229;-93
2022/10/13 06:11:01;;;;;;;14.97;8.50;;;11.70;99.90;;;;;;5114824;28;20626;-93
2022/10/13 06:13:32;;;;;;;17.33;8.10;;;11.70;99.90;;;;;;5114424;28;20208;-91
2022/10/13 06:16:04;;;;;;;12.00;7.60;;;11.70;99.90;;;;;;5114914;28;20210;-91
2022/10/13 06:18:35;;;;;;;14.77;7.27;;;11.70;99.90;;;;;;5115114;28;20208;-92
2022/10/13 06:21:08;;;;;;;17.67;8.13;;;11.70;99.90;;;;;;5114693;28;20233;-92
2022/10/13 06:23:39;;;;;;;13.87;7.93;;;11.60;99.90;;;;;;5113832;28;20663;-92
2022/10/13 06:26:11;;;;;;;15.63;7.70;;;11.60;99.90;;;;;;5115249;28;20214;-92
2022/10/13 06:28:42;;;;;;;13.17;7.77;;;11.60;99.90;;;;;;5097209;28;20233;-93
2022/10/13 06:31:18;;;;;;;19.97;8.53;;;11.60;99.90;;;;;;5097551;28;20252;-92
2022/10/13 06:33:50;;;;;;;18.40;8.70;;;11.60;99.90;;;;;;5113534;28;20202;-93
2022/10/13 06:36:23;;;;;;;18.87;9.10;;;11.50;99.90;;;;;;5114599;28;20233;-92
2022/10/13 06:38:54;;;;;;;13.73;8.40;;;11.50;99.90;;;;;;5114856;28;20572;-93
2022/10/13 06:41:26;;;;;;;15.70;7.40;;;11.50;99.90;;;;;;5096990;28;20588;-92
2022/10/13 06:43:57;;;;;;;14.67;8.60;;;11.50;99.90;;;;;;5113478;28;20218;-92
2022/10/13 06:46:29;;;;;;;16.30;8.60;;;11.50;99.90;;;;;;5114481;28;20210;-93
2022/10/13 06:49:00;;;;;;;16.43;8.23;;;11.50;99.90;;;;;;5114759;28;20233;-92
2022/10/13 06:51:36;;;;;;;16.27;7.80;;;11.50;99.90;;;;;;5117654;28;20202;-93
2022/10/13 06:54:07;;;;;;;16.43;8.20;;;11.50;99.90;;;;;;5100238;28;20662;-93
2022/10/13 06:56:38;;;;;;;15.93;8.17;;;11.50;99.90;;;;;;5122867;28;20258;-92
2022/10/13 06:59:10;;;;;;;17.30;8.00;;;11.40;99.90;;;;;;5118695;28;20521;-93
2022/10/13 07:01:42;;;;;;;15.27;7.43;;;11.40;99.90;;;;;;5120761;28;20202;-92
2022/10/13 07:04:13;;;;;;;16.03;7.47;;;11.40;99.90;;;;;;5120674;28;20209;-92
2022/10/13 07:06:46;;;;;;;16.37;8.03;;;11.40;99.90;;;;;;5120897;28;20210;-91
2022/10/13 07:09:18;;;;;;;13.37;7.03;;;11.30;99.90;;;;;;5120711;28;20240;-92
2022/10/13 07:11:50;;;;;;;14.03;7.43;;;11.30;99.90;;;;;;5116715;28;20576;-93
2022/10/13 07:14:21;;;;;;;14.93;7.70;;;11.30;99.90;;;;;;5100841;28;20202;-91
2022/10/13 07:16:52;;;;;;;13.47;7.10;;;11.30;99.90;;;;;;5118910;28;20236;-91
2022/10/13 07:19:23;;;;;;;14.07;6.53;;;11.30;99.90;;;;;;5117871;28;20203;-91
2022/10/13 07:21:58;;;;;;;13.30;6.53;;;11.20;99.90;;;;;;5117265;28;20649;-92
2022/10/13 07:24:30;;;;;;;15.93;7.00;;;11.20;99.90;;;;;;5117971;28;20202;-91
2022/10/13 07:27:02;;;;;;;10.20;6.90;;;11.20;99.90;;;;;;5119090;28;20228;-92
2022/10/13 07:29:37;;;;;;;13.30;6.60;;;11.20;99.90;;;;;;5120661;28;20240;-92
2022/10/13 07:32:08;;;;;;;11.93;6.93;;;11.10;99.90;;;;;;5119216;28;20247;-93
2022/10/13 07:34:39;;;;;;;9.93;6.47;;;11.10;99.90;;;;;;5119574;28;20214;-93
2022/10/13 07:37:13;;;;;;;12.80;6.10;;;11.10;99.90;;;;;;5121034;28;20206;-93
2022/10/13 07:39:44;;;;;;;15.60;6.47;;;11.00;99.90;;;;;;5119188;28;20214;-92
2022/10/13 07:42:16;;;;;;;14.57;6.53;;;11.00;99.90;;;;;;5118112;28;20202;-91
2022/10/13 07:44:47;;;;;;;12.17;6.33;;;11.00;99.90;;;;;;5127986;28;20212;-92
2022/10/13 07:47:17;;;;;;;15.57;6.80;;;11.00;99.90;;;;;;5127716;28;20211;-92
2022/10/13 07:49:49;;;;;;;12.20;5.97;;;11.00;99.90;;;;;;5119078;28;20234;-91
2022/10/13 07:52:22;;;;;;;13.73;6.10;;;11.00;99.90;;;;;;5126965;28;20202;-92
2022/10/13 07:54:54;;;;;;;15.93;6.70;;;10.90;99.90;;;;;;5128853;28;20267;-91
2022/10/13 07:57:28;;;;;;;11.80;5.50;;;10.90;99.90;;;;;;5128251;28;20277;-93
2022/10/13 07:59:59;;;;;;;13.47;6.23;;;10.90;99.90;;;;;;5120935;28;20230;-92
2022/10/13 08:02:30;;;;;;;10.57;5.93;;;10.90;99.90;;;;;;5118849;28;20753;-92
2022/10/13 08:05:01;;;;;;;12.07;5.70;;;10.80;99.90;;;;;;5124423;28;20209;-92
2022/10/13 08:07:38;;;;;;;12.57;6.20;;;10.80;99.90;;;;;;5128808;28;20218;-93
2022/10/13 08:10:10;;;;;;;15.40;6.83;;;10.70;99.90;;;;;;5125899;28;20205;-92
2022/10/13 08:12:41;;;;;;;9.37;5.90;;;10.70;99.90;;;;;;5119640;28;20212;-93
2022/10/13 08:15:12;;;;;;;10.77;6.17;;;10.70;99.90;;;;;;5131586;28;20206;-92
2022/10/13 08:17:44;;;;;;;14.37;5.53;;;10.70;99.90;;;;;;5134237;28;20198;-91
2022/10/13 08:20:16;;;;;;;16.37;5.97;;;10.70;99.90;;;;;;5139082;28;20266;-92
2022/10/13 08:22:50;;;;;;;10.97;6.20;;;10.70;99.90;;;;;;5136659;28;20700;-93
2022/10/13 08:25:21;;;;;;;11.10;5.63;;;10.70;99.90;;;;;;5114562;28;20207;-91
2022/10/13 08:27:52;;;;;;;12.40;6.47;;;10.60;99.90;;;;;;5105810;28;20306;-92
2022/10/13 08:30:29;;;;;;;12.00;5.93;;;10.60;99.90;;;;;;5097076;28;20264;-92
2022/10/13 08:33:01;;;;;;;12.17;5.70;;;10.60;99.90;;;;;;5097075;28;20663;-92
2022/10/13 08:35:32;;;;;;;9.57;5.37;;;10.60;99.90;;;;;;5080482;28;20202;-92
2022/10/13 08:38:06;;;;;;;15.10;6.30;;;10.60;99.90;;;;;;5098576;28;20255;-92
2022/10/13 08:40:39;;;;;;;15.67;5.63;;;10.60;99.90;;;;;;5099382;28;20592;-91
2022/10/13 08:43:15;;;;;;;11.43;5.80;;;10.60;99.90;;;;;;5111461;28;20619;-91
2022/10/13 08:45:46;;;;;;;13.97;5.63;;;10.50;99.90;;;;;;5115636;28;20198;-90
2022/10/13 08:48:20;;;;;;;12.27;5.63;;;10.60;99.90;;;;;;5114741;28;20282;-91
2022/10/13 08:50:55;;;;;;;16.43;6.27;;;10.60;99.90;;;;;;5105196;28;20211;-93
2022/10/13 08:53:32;;;;;;;10.87;5.40;;;10.50;99.90;;;;;;5097064;28;20206;-92
2022/10/13 08:56:10;;;;;;;13.27;6.07;;;10.50;99.90;;;;;;5079812;28;20211;-92
2022/10/13 08:58:43;;;;;;;9.87;5.10;;;10.50;99.90;;;;;;5096450;28;20211;-93
2022/10/13 09:01:16;;;;;;;11.17;5.57;;;10.50;99.90;;;;;;5095147;28;20245;-93
2022/10/13 09:03:52;;;;;;;10.33;5.37;;;10.40;99.90;;;;;;5093646;28;20595;-93
2022/10/13 09:06:30;;;;;;;12.70;5.57;;;10.40;99.90;;;;;;5115876;28;20210;-92
2022/10/13 09:09:04;;;;;;;13.33;5.93;;;10.40;99.90;;;;;;5115810;28;20226;-92
2022/10/13 09:11:38;;;;;;;12.33;5.37;;;10.40;99.90;;;;;;5116017;28;20209;-92
2022/10/13 09:14:12;;;;;;;14.87;6.40;;;10.40;99.90;;;;;;5096934;28;20285;-92
2022/10/13 09:16:45;;;;;;;15.37;6.90;;;10.40;99.90;;;;;;5115620;28;20205;-92
2022/10/13 09:19:23;;;;;;;14.37;6.03;;;10.30;99.90;;;;;;5115270;28;20202;-93
2022/10/13 09:21:56;;;;;;;14.93;6.30;;;10.30;99.90;;;;;;5096695;28;20685;-92
2022/10/13 09:24:28;;;;;;;17.30;6.23;;;10.30;99.90;;;;;;5120653;28;20206;-92
2022/10/13 09:27:12;;;;;;;11.80;5.97;;;10.30;99.90;;;;;;5114979;28;20652;-92
2022/10/13 09:29:45;;;;;;;11.80;5.63;;;10.30;99.90;;;;;;5117887;28;20234;-93
2022/10/13 09:32:19;;;;;;;11.80;6.43;;;10.30;99.90;;;;;;5098167;28;20202;-92
2022/10/13 09:34:54;;;;;;;10.60;6.03;;;10.30;99.90;;;;;;5118036;28;20204;-91
2022/10/13 09:37:27;;;;;;;12.00;5.80;;;10.30;99.90;;;;;;5116488;28;20193;-91
2022/10/13 09:40:15;;;;;;;11.73;6.00;;;10.30;99.90;;;;;;5115056;28;20218;-92
2022/10/13 09:42:53;;;;;;;12.83;6.10;;;10.30;99.90;;;;;;5114601;28;20206;-92
2022/10/13 09:45:26;;;;;;;11.90;6.37;;;10.20;99.90;;;;;;5098959;28;20229;-92
2022/10/13 09:48:00;;;;;;;11.33;6.27;;;10.20;99.90;;;;;;5115147;28;20206;-91
2022/10/13 09:50:33;;;;;;;10.77;5.90;;;10.20;99.90;;;;;;5117036;28;20585;-92
2022/10/13 09:53:18;;;;;;;10.93;6.23;;;10.10;99.90;;;;;;5115164;28;20202;-91
2022/10/13 09:56:07;;;;;;;15.07;7.20;;;10.20;99.90;;;;;;5115200;28;20208;-92
2022/10/13 09:58:45;;;;;;;11.53;6.40;;;10.10;99.90;;;;;;5115290;28;20202;-91
2022/10/13 10:01:23;;;;;;;14.17;6.63;;;10.10;99.90;;;;;;5115246;28;20236;-93
2022/10/13 10:03:56;;;;;;;17.10;6.60;;;10.10;99.90;;;;;;5114601;28;20221;-92
2022/10/13 10:06:27;;;;;;;16.53;6.67;;;10.10;99.90;;;;;;5114602;28;20228;-91
2022/10/13 10:09:02;;;;;;;18.23;6.73;;;10.00;99.90;;;;;;5114753;28;20209;-92
2022/10/13 10:11:41;;;;;;;14.43;6.40;;;10.00;99.90;;;;;;5097043;28;20205;-92
2022/10/13 10:14:18;;;;;;;17.13;6.47;;;10.00;99.90;;;;;;5114579;28;20202;-93
2022/10/13 10:16:56;;;;;;;13.83;6.30;;;10.00;99.90;;;;;;5114708;28;20206;-92
2022/10/13 10:19:32;;;;;;;12.97;6.10;;;10.00;99.90;;;;;;5114855;28;20286;-93
2022/10/13 10:22:11;;;;;;;14.33;6.60;;;9.90;99.90;;;;;;5113734;28;20441;-93
2022/10/13 10:24:50;;;;;;;15.37;6.47;;;9.80;99.90;;;;;;5115307;28;20212;-93
2022/10/13 10:27:30;;;;;;;11.80;5.73;;;9.80;99.90;;;;;;5118501;28;20202;-92
2022/10/13 10:30:06;;;;;;;16.70;5.83;;;9.80;99.90;;;;;;5118763;28;20248;-93
2022/10/13 10:32:45;;;;;;;14.87;6.17;;;9.80;99.90;;;;;;5100730;28;20627;-93
2022/10/13 10:35:21;;;;;;;13.43;5.97;;;9.70;99.90;;;;;;5118695;28;20209;-92
2022/10/13 10:38:05;;;;;;;11.23;5.97;;;9.70;99.90;;;;;;5119071;28;20206;-93
2022/10/13 10:40:46;;;;;;;12.90;5.90;;;9.70;99.90;;;;;;5128377;28;20661;-92
2022/10/13 10:43:53;;;;;;;11.47;5.60;;;9.70;99.90;;;;;;5101700;28;20221;-91
2022/10/13 10:46:31;;;;;;;12.70;5.67;;;9.70;99.90;;;;;;5118679;28;20202;-92
2022/10/13 10:49:12;;;;;;;17.00;6.27;;;9.70;99.90;;;;;;5100517;28;20214;-93
2022/10/13 10:51:43;;;;;;;12.47;6.27;;;9.70;99.90;;;;;;5117851;28;20209;-92
2022/10/13 10:54:28;;;;;;;10.97;5.57;;;9.60;99.90;;;;;;5100949;28;20210;-92
2022/10/13 10:57:03;;;;;;;12.47;5.93;;;9.60;99.90;;;;;;5118137;28;20233;-91
2022/10/13 10:59:50;;;;;;;13.27;6.40;;;9.60;99.90;;;;;;5118310;28;20216;-92
2022/10/13 11:02:48;;;;;;;12.10;6.10;;;9.60;99.90;;;;;;5116959;28;20213;-92
2022/10/13 11:05:19;;;;;;;10.10;6.23;;;9.50;99.90;;;;;;5118417;28;20565;-91
2022/10/13 11:07:57;;;;;;;13.43;6.60;;;9.50;99.90;;;;;;5118369;28;20203;-92
2022/10/13 11:10:30;;;;;;;16.87;7.73;;;9.50;99.90;;;;;;5117632;28;20257;-92
2022/10/13 11:13:27;;;;;;;14.20;7.07;;;9.50;99.90;;;;;;5116983;28;20206;-91
2022/10/13 11:16:19;;;;;;;16.73;7.40;;;9.50;99.90;;;;;;5100457;28;20207;-92
2022/10/13 11:19:25;;;;;;;14.70;7.80;;;9.40;99.90;;;;;;5117851;28;20232;-91
2022/10/13 11:22:26;;;;;;;20.77;8.20;;;9.40;99.90;;;;;;5117007;28;20218;-91
2022/10/13 11:25:03;;;;;;;14.73;7.80;;;9.40;99.90;;;;;;5119312;28;20210;-92
2022/10/13 11:27:43;;;;;;;14.97;7.27;;;9.40;99.90;;;;;;5102824;28;20205;-92
2022/10/13 11:30:45;;;;;;;15.50;8.43;;;9.30;99.90;;;;;;5096939;28;20234;-93
2022/10/13 11:33:52;;;;;;;16.90;8.00;;;9.30;99.90;;;;;;5096420;28;20572;-92
2022/10/13 11:36:51;;;;;;;16.67;8.40;;;9.30;99.90;;;;;;5079120;28;20672;-91
2022/10/13 11:40:03;;;;;;;15.43;8.67;;;9.30;99.90;;;;;;5097567;28;20233;-92
2022/10/13 11:43:19;;;;;;;15.00;8.20;;;9.30;99.90;;;;;;5059048;28;20210;-92
2022/10/13 11:46:17;;;;;;;14.43;8.73;;;9.30;99.90;;;;;;5101364;28;20547;-92
2022/10/13 11:49:35;;;;;;;14.93;8.70;;;9.30;99.90;;;;;;5120398;28;20198;-93
2022/10/13 11:52:21;;;;;;;18.73;9.27;;;9.30;99.90;;;;;;5103674;28;20206;-93
2022/10/13 11:54:57;;;;;;;14.53;8.07;;;9.30;99.90;;;;;;5117737;28;20271;-90
2022/10/13 11:57:31;;;;;;;16.17;8.77;;;9.30;99.90;;;;;;5117872;28;20214;-92
2022/10/13 12:00:06;;;;;;;13.93;8.80;;;9.20;99.90;;;;;;5117572;28;20213;-92
2022/10/13 12:02:37;;;;;;;18.60;8.47;;;9.20;99.90;;;;;;5116373;28;20209;-92
2022/10/13 12:05:22;;;;;;;13.87;8.40;;;9.20;99.90;;;;;;5116964;28;20198;-92
2022/10/13 12:07:55;;;;;;;14.90;7.80;;;9.20;99.90;;;;;;5099342;28;20546;-93
2022/10/13 12:10:31;;;;;;;17.63;8.80;;;9.20;99.90;;;;;;5116869;28;20240;-92
2022/10/13 12:13:03;;;;;;;17.47;8.23;;;9.20;99.90;;;;;;5116408;28;20681;-91
2022/10/13 12:15:38;;;;;;;15.07;8.73;;;9.20;99.90;;;;;;5116865;28;20228;-92
2022/10/13 12:18:24;;;;;;;15.80;8.07;;;9.20;99.90;;;;;;5116680;28;20211;-90
2022/10/13 12:20:56;;;;;;;16.17;9.17;;;9.20;99.90;;;;;;5117105;28;20578;-93
2022/10/13 12:23:28;;;;;;;17.30;9.00;;;9.10;99.90;;;;;;5098088;28;20232;-92
2022/10/13 12:25:59;;;;;;;14.77;8.03;;;9.10;99.90;;;;;;5115887;28;20214;-92
2022/10/13 12:28:44;;;;;;;17.03;7.83;;;9.10;99.90;;;;;;5116991;28;20654;-93
2022/10/13 12:31:22;;;;;;;14.53;7.50;;;9.10;99.90;;;;;;5116046;28;20233;-92
2022/10/13 12:33:55;;;;;;;15.30;7.57;;;9.00;99.90;;;;;;5115591;28;20220;-93
2022/10/13 12:36:30;;;;;;;19.93;8.17;;;9.00;99.90;;;;;;5116188;28;20217;-92
2022/10/13 12:39:05;;;;;;;13.43;7.00;;;9.00;99.90;;;;;;5116384;28;20214;-92
2022/10/13 12:41:38;;;;;;;15.00;7.23;;;9.00;99.90;;;;;;5099094;28;20213;-91
2022/10/13 12:44:15;;;;;;;11.10;6.23;;;9.00;99.90;;;;;;5114924;28;20207;-93
2022/10/13 12:46:51;;;;;;;13.73;6.50;;;9.00;99.90;;;;;;5116275;28;20213;-91
2022/10/13 12:49:24;;;;;;;19.87;6.30;;;9.00;99.90;;;;;;5116458;28;20202;-92
2022/10/13 12:52:04;;;;;;;13.83;6.60;;;9.00;99.90;;;;;;5114979;28;20238;-92
2022/10/13 12:54:38;;;;;;;16.00;6.37;;;9.00;99.90;;;;;;5116540;28;20571;-93
2022/10/13 12:57:19;;;;;;;10.67;5.60;;;9.10;99.90;;;;;;5102678;28;20207;-92
2022/10/13 12:59:51;;;;;;;11.80;6.13;;;9.00;99.90;;;;;;5125682;28;20210;-92
2022/10/13 13:02:28;;;;;;;12.40;5.70;;;9.10;99.90;;;;;;5105603;28;20284;-90
2022/10/13 13:05:01;;;;;;;13.03;5.77;;;9.10;99.90;;;;;;5119658;28;20217;-92
2022/10/13 13:07:35;;;;;;;13.03;5.40;;;9.10;99.90;;;;;;5119098;28;20206;-91
2022/10/13 13:10:19;;;;;;;12.63;5.70;;;9.10;99.90;;;;;;5117326;28;20585;-92
2022/10/13 13:12:51;;;;;;;15.87;5.90;;;9.10;99.90;;;;;;5115811;28;20205;-91
2022/10/13 13:15:33;;;;;;;14.13;6.23;;;9.10;99.90;;;;;;5119395;28;20207;-92
2022/10/13 13:18:35;;;;;;;16.97;7.30;;;9.10;99.90;;;;;;5115311;28;20269;-91